createdAt,value
2023-04-16T00:00:15.645Z,1.40
2023-04-16T00:03:04.174Z,1.70
2023-04-16T00:05:32.665Z,1.40
2023-04-16T00:08:01.552Z,1.40
2023-04-16T00:10:29.506Z,1.50
2023-04-16T00:12:57.620Z,1.40
2023-04-16T00:15:26.084Z,2.20
2023-04-16T00:17:54.199Z,2.30
2023-04-16T00:20:22.641Z,1.60
2023-04-16T00:22:51.336Z,1.90
2023-04-16T00:25:19.420Z,1.70
2023-04-16T00:27:47.469Z,2.00
2023-04-16T00:30:16.062Z,1.50
2023-04-16T00:32:44.030Z,1.40
2023-04-16T00:35:12.191Z,1.50
2023-04-16T00:37:40.276Z,1.80
2023-04-16T00:40:09.068Z,2.10
2023-04-16T00:42:38.255Z,2.10
2023-04-16T00:45:07.352Z,2.50
2023-04-16T00:47:35.430Z,1.70
2023-04-16T00:50:04.622Z,1.40
2023-04-16T00:52:33.087Z,2.20
2023-04-16T00:55:01.519Z,1.70
2023-04-16T00:57:30.773Z,1.50
2023-04-16T00:59:58.834Z,1.70
2023-04-16T01:02:27.090Z,1.50
2023-04-16T01:07:23.571Z,1.60
2023-04-16T01:09:51.753Z,1.60
2023-04-16T01:12:19.818Z,1.90
2023-04-16T01:14:47.785Z,1.60
2023-04-16T01:17:15.941Z,1.40
2023-04-16T01:19:44.148Z,0.90
2023-04-16T01:24:40.802Z,1.60
2023-04-16T01:27:11.422Z,2.00
2023-04-16T01:29:39.614Z,2.00
2023-04-16T01:32:08.486Z,1.40
2023-04-16T01:34:38.767Z,1.40
2023-04-16T01:37:07.560Z,1.00
2023-04-16T01:39:35.783Z,1.10
2023-04-16T01:42:03.863Z,1.80
2023-04-16T01:44:31.955Z,1.10
2023-04-16T01:47:00.354Z,1.90
2023-04-16T01:51:56.597Z,1.70
2023-04-16T01:54:25.486Z,1.30
2023-04-16T01:56:53.626Z,1.60
2023-04-16T02:01:50.146Z,1.60
2023-04-16T02:06:47.031Z,1.40
2023-04-16T02:09:15.711Z,2.60
2023-04-16T02:11:43.999Z,1.60
2023-04-16T02:14:12.263Z,2.10
2023-04-16T02:16:40.577Z,2.00
2023-04-16T02:21:43.753Z,1.70
2023-04-16T02:24:12.225Z,2.10
2023-04-16T02:26:40.707Z,2.10
2023-04-16T02:29:13.187Z,1.80
2023-04-16T02:31:44.724Z,2.40
2023-04-16T02:34:13.844Z,1.70
2023-04-16T02:36:42.125Z,2.00
2023-04-16T02:39:10.651Z,2.30
2023-04-16T02:41:38.772Z,1.60
2023-04-16T02:44:06.933Z,2.40
2023-04-16T02:46:35.130Z,2.10
2023-04-16T02:49:03.186Z,1.90
2023-04-16T02:51:31.269Z,1.70
2023-04-16T02:53:59.338Z,3.10
2023-04-16T02:56:27.397Z,1.30
2023-04-16T02:58:55.674Z,2.10
2023-04-16T03:03:52.071Z,1.90
2023-04-16T03:06:20.111Z,2.40
2023-04-16T03:08:48.272Z,2.00
2023-04-16T03:11:17.172Z,2.20
2023-04-16T03:13:45.345Z,1.80
2023-04-16T03:16:13.466Z,2.60
2023-04-16T03:18:41.483Z,1.60
2023-04-16T03:21:09.665Z,1.90
2023-04-16T03:23:37.824Z,1.80
2023-04-16T03:26:06.579Z,2.30
2023-04-16T03:28:35.046Z,1.70
2023-04-16T03:31:03.416Z,2.40
2023-04-16T03:33:31.506Z,1.90
2023-04-16T03:35:59.725Z,2.00
2023-04-16T03:38:30.680Z,1.90
2023-04-16T03:41:00.083Z,1.80
2023-04-16T03:43:28.254Z,2.10
2023-04-16T03:45:56.782Z,1.70
2023-04-16T03:48:24.793Z,1.70
2023-04-16T03:50:53.868Z,2.20
2023-04-16T03:53:22.072Z,1.60
2023-04-16T03:58:20.469Z,2.70
2023-04-16T04:00:48.952Z,1.80
2023-04-16T04:03:18.095Z,1.70
2023-04-16T04:05:47.763Z,1.60
2023-04-16T04:08:18.183Z,1.90
2023-04-16T04:10:46.348Z,2.40
2023-04-16T04:13:15.248Z,2.30
2023-04-16T04:15:44.651Z,2.30
2023-04-16T04:20:45.812Z,2.30
2023-04-16T04:23:15.930Z,1.50
2023-04-16T04:25:44.536Z,1.90
2023-04-16T04:28:14.028Z,2.20
2023-04-16T04:30:42.308Z,2.40
2023-04-16T04:43:19.753Z,2.20
2023-04-16T04:45:49.477Z,1.90
2023-04-16T04:48:18.355Z,1.80
2023-04-16T04:53:15.158Z,3.70
2023-04-16T04:55:43.955Z,1.90
2023-04-16T04:58:12.088Z,1.70
2023-04-16T05:03:11.569Z,2.10
2023-04-16T05:05:40.794Z,1.70
2023-04-16T05:08:08.984Z,1.90
2023-04-16T05:13:05.038Z,1.70
2023-04-16T05:15:33.086Z,2.20
2023-04-16T05:18:01.422Z,1.90
2023-04-16T05:22:57.521Z,2.20
2023-04-16T05:25:25.410Z,1.60
2023-04-16T05:27:53.460Z,1.90
2023-04-16T05:30:21.518Z,2.00
2023-04-16T05:32:49.496Z,1.70
2023-04-16T05:35:17.914Z,2.10
2023-04-16T05:37:46.149Z,1.70
2023-04-16T05:40:14.681Z,1.60
2023-04-16T05:42:42.800Z,2.10
2023-04-16T05:45:11.174Z,1.70
2023-04-16T05:50:07.833Z,1.40
2023-04-16T05:52:35.900Z,2.20
2023-04-16T05:55:04.181Z,1.80
2023-04-16T06:00:01.044Z,1.60
2023-04-16T06:02:30.781Z,2.10
2023-04-16T06:04:59.261Z,2.30
2023-04-16T06:09:55.272Z,1.80
2023-04-16T06:12:23.338Z,2.00
2023-04-16T06:14:51.754Z,2.00
2023-04-16T06:17:20.009Z,2.20
2023-04-16T06:19:48.069Z,2.10
2023-04-16T06:22:16.343Z,2.10
2023-04-16T06:24:44.725Z,1.80
2023-04-16T06:27:12.798Z,2.20
2023-04-16T06:29:41.810Z,2.10
2023-04-16T06:32:10.268Z,1.90
2023-04-16T06:34:38.868Z,2.30
2023-04-16T06:37:09.876Z,1.80
2023-04-16T06:39:38.788Z,1.60
2023-04-16T06:42:06.873Z,2.20
2023-04-16T06:44:35.789Z,2.50
2023-04-16T06:47:03.903Z,2.00
2023-04-16T06:49:32.207Z,2.50
2023-04-16T06:52:00.482Z,2.50
2023-04-16T06:56:56.500Z,2.00
2023-04-16T06:59:24.903Z,1.70
2023-04-16T07:01:53.051Z,2.30
2023-04-16T07:06:49.415Z,1.40
2023-04-16T07:09:20.248Z,1.80
2023-04-16T07:11:48.324Z,2.50
2023-04-16T07:14:16.402Z,2.10
2023-04-16T07:16:44.541Z,2.90
2023-04-16T07:19:12.859Z,2.40
2023-04-16T07:21:43.837Z,1.50
2023-04-16T07:24:12.062Z,1.80
2023-04-16T07:26:40.042Z,2.00
2023-04-16T07:29:08.669Z,1.80
2023-04-16T07:31:37.014Z,1.80
2023-04-16T07:34:05.273Z,1.90
2023-04-16T07:36:33.760Z,2.10
2023-04-16T07:41:29.909Z,1.70
2023-04-16T07:43:58.382Z,2.40
2023-04-16T07:46:30.509Z,2.80
2023-04-16T07:49:04.350Z,2.30
2023-04-16T07:51:32.343Z,2.90
2023-04-16T07:54:00.809Z,1.80
2023-04-16T07:56:28.989Z,1.90
2023-04-16T07:58:58.344Z,2.50
2023-04-16T08:01:31.679Z,2.00
2023-04-16T08:06:28.135Z,1.70
2023-04-16T08:11:24.378Z,3.00
2023-04-16T08:13:52.450Z,1.60
2023-04-16T08:16:20.589Z,2.40
2023-04-16T08:18:49.001Z,2.00
2023-04-16T08:21:17.073Z,1.80
2023-04-16T08:23:45.139Z,2.20
2023-04-16T08:26:13.220Z,1.60
2023-04-16T08:28:41.178Z,1.50
2023-04-16T08:31:09.228Z,1.80
2023-04-16T08:33:37.331Z,2.00
2023-04-16T08:36:05.994Z,1.60
2023-04-16T08:38:33.969Z,1.60
2023-04-16T08:41:03.995Z,1.60
2023-04-16T08:43:34.751Z,1.70
2023-04-16T08:46:04.231Z,2.00
2023-04-16T08:48:33.850Z,1.60
2023-04-16T08:51:02.234Z,1.70
2023-04-16T08:53:37.492Z,1.40
2023-04-16T08:56:06.357Z,2.00
2023-04-16T08:58:35.867Z,1.60
2023-04-16T09:01:04.017Z,1.60
2023-04-16T09:06:05.815Z,1.70
2023-04-16T09:08:34.908Z,1.40
2023-04-16T09:11:02.994Z,2.10
2023-04-16T09:13:31.980Z,2.30
2023-04-16T09:16:00.061Z,1.80
2023-04-16T09:20:57.250Z,1.70
2023-04-16T09:23:25.606Z,1.80
2023-04-16T09:31:27.455Z,1.20
2023-04-16T09:34:08.869Z,1.70
2023-04-16T09:36:37.080Z,1.40
2023-04-16T09:39:05.226Z,1.20
2023-04-16T09:41:36.260Z,1.40
2023-04-16T09:44:05.548Z,2.00
2023-04-16T09:46:37.928Z,1.50
2023-04-16T09:49:10.607Z,1.50
2023-04-16T09:51:44.931Z,1.50
2023-04-16T09:54:13.115Z,1.60
2023-04-16T09:59:19.322Z,1.70
2023-04-16T10:01:49.519Z,1.20
2023-04-16T10:04:18.040Z,1.80
2023-04-16T10:07:05.326Z,1.40
2023-04-16T10:09:43.017Z,1.60
2023-04-16T10:12:13.038Z,1.20
2023-04-16T10:14:41.337Z,2.30
2023-04-16T10:19:38.577Z,1.00
2023-04-16T10:22:06.946Z,1.70
2023-04-16T10:24:35.566Z,2.30
2023-04-16T10:27:03.822Z,1.60
2023-04-16T10:29:31.910Z,1.80
2023-04-16T10:32:00.078Z,1.40
2023-04-16T10:36:57.214Z,1.50
2023-04-16T10:39:27.833Z,1.90
2023-04-16T10:42:12.223Z,0.80
2023-04-16T10:44:44.390Z,2.30
2023-04-16T10:47:14.258Z,1.50
2023-04-16T10:49:43.782Z,1.30
2023-04-16T10:52:13.610Z,1.20
2023-04-16T10:54:41.662Z,1.30
2023-04-16T10:57:12.340Z,0.70
2023-04-16T10:59:41.492Z,1.80
2023-04-16T11:02:17.930Z,1.20
2023-04-16T11:04:47.728Z,1.50
2023-04-16T11:07:18.661Z,1.60
2023-04-16T11:09:47.952Z,1.10
2023-04-16T11:12:24.114Z,1.00
2023-04-16T11:14:53.707Z,1.80
2023-04-16T11:17:22.218Z,1.60
2023-04-16T11:24:56.708Z,1.60
2023-04-16T11:27:25.543Z,1.70
2023-04-16T11:30:07.492Z,1.30
2023-04-16T11:32:36.748Z,1.20
2023-04-16T11:35:13.522Z,1.90
2023-04-16T11:37:42.195Z,1.60
2023-04-16T11:40:11.080Z,1.70
2023-04-16T11:42:42.715Z,1.40
2023-04-16T11:45:12.142Z,0.70
2023-04-16T11:47:58.295Z,1.80
2023-04-16T11:52:57.161Z,1.20
2023-04-16T11:55:26.135Z,1.10
2023-04-16T11:57:54.207Z,1.40
2023-04-16T12:00:24.584Z,1.20
2023-04-16T12:02:54.047Z,1.60
2023-04-16T12:05:48.942Z,1.20
2023-04-16T12:08:29.095Z,1.30
2023-04-16T12:10:58.304Z,1.20
2023-04-16T12:13:26.369Z,1.30
2023-04-16T12:18:28.866Z,1.70
2023-04-16T12:20:56.992Z,1.40
2023-04-16T12:26:12.443Z,1.20
2023-04-16T12:28:41.722Z,1.30
2023-04-16T12:31:11.488Z,1.20
2023-04-16T12:33:39.624Z,1.00
2023-04-16T12:36:18.671Z,1.20
2023-04-16T12:38:46.916Z,1.20
2023-04-16T12:43:42.959Z,1.00
2023-04-16T12:46:11.250Z,1.20
2023-04-16T12:51:07.493Z,1.10
2023-04-16T12:53:35.570Z,0.80
2023-04-16T12:56:03.651Z,1.20
2023-04-16T12:58:31.903Z,1.30
2023-04-16T13:01:00.175Z,0.90
2023-04-16T13:03:28.505Z,1.30
2023-04-16T13:05:57.037Z,1.40
2023-04-16T13:10:52.869Z,0.80
2023-04-16T13:13:20.854Z,0.50
2023-04-16T13:15:48.981Z,1.40
2023-04-16T13:18:17.301Z,1.20
2023-04-16T13:23:13.763Z,1.00
2023-04-16T13:25:41.818Z,0.80
2023-04-16T13:30:38.283Z,1.10
2023-04-16T13:33:06.392Z,1.00
2023-04-16T13:38:02.305Z,1.20
2023-04-16T13:40:30.463Z,1.30
2023-04-16T13:42:58.527Z,1.00
2023-04-16T13:45:28.030Z,0.60
2023-04-16T13:47:56.553Z,1.40
2023-04-16T13:50:24.676Z,1.00
2023-04-16T13:52:52.826Z,0.90
2023-04-16T13:55:21.143Z,0.90
2023-04-16T13:57:49.801Z,1.20
2023-04-16T14:00:18.508Z,1.50
2023-04-16T14:02:49.051Z,0.90
2023-04-16T14:05:17.328Z,1.00
2023-04-16T14:07:46.522Z,1.30
2023-04-16T14:10:14.597Z,1.60
2023-04-16T14:12:44.429Z,0.80
2023-04-16T14:15:14.756Z,1.50
2023-04-16T14:17:43.702Z,0.70
2023-04-16T14:20:12.957Z,1.20
2023-04-16T14:22:42.625Z,0.60
2023-04-16T14:25:11.303Z,1.10
2023-04-16T14:27:39.679Z,1.40
2023-04-16T14:32:36.600Z,1.00
2023-04-16T14:35:05.735Z,0.60
2023-04-16T14:37:35.964Z,0.60
2023-04-16T14:40:08.992Z,1.10
2023-04-16T14:42:37.429Z,0.90
2023-04-16T14:47:37.977Z,1.10
2023-04-16T14:50:06.704Z,0.80
2023-04-16T14:52:35.052Z,0.70
2023-04-16T14:55:03.230Z,1.00
2023-04-16T14:59:59.879Z,0.80
2023-04-16T15:04:56.836Z,1.30
2023-04-16T15:07:26.425Z,1.20
2023-04-16T15:09:54.628Z,0.70
2023-04-16T15:14:50.969Z,0.40
2023-04-16T15:19:47.826Z,0.80
2023-04-16T15:22:16.007Z,1.40
2023-04-16T15:24:44.160Z,0.50
2023-04-16T15:29:43.207Z,0.90
2023-04-16T15:32:11.495Z,0.80
2023-04-16T15:37:07.408Z,0.90
2023-04-16T15:39:35.584Z,1.10
2023-04-16T15:42:09.483Z,1.10
2023-04-16T15:44:37.578Z,0.80
2023-04-16T15:47:08.197Z,1.00
2023-04-16T15:49:36.704Z,0.60
2023-04-16T15:52:05.049Z,0.80
2023-04-16T15:54:33.077Z,1.10
2023-04-16T15:57:01.954Z,0.70
2023-04-16T15:59:30.201Z,0.80
2023-04-16T16:01:59.155Z,0.90
2023-04-16T16:04:28.355Z,0.80
2023-04-16T16:06:56.683Z,0.70
2023-04-16T16:09:28.110Z,0.70
2023-04-16T16:11:57.429Z,0.90
2023-04-16T16:14:27.038Z,1.50
2023-04-16T16:16:55.150Z,0.90
2023-04-16T16:19:23.173Z,0.80
2023-04-16T16:21:51.536Z,0.60
2023-04-16T16:24:19.657Z,0.80
2023-04-16T16:26:47.800Z,0.90
2023-04-16T16:29:16.081Z,0.60
2023-04-16T16:31:44.193Z,0.80
2023-04-16T16:34:20.094Z,0.80
2023-04-16T16:36:49.294Z,1.20
2023-04-16T16:39:17.358Z,0.70
2023-04-16T16:41:45.862Z,1.00
2023-04-16T16:44:14.017Z,0.70
2023-04-16T16:49:10.661Z,0.80
2023-04-16T16:51:39.081Z,0.80
2023-04-16T16:54:07.427Z,1.10
2023-04-16T16:59:03.234Z,0.70
2023-04-16T17:01:32.188Z,0.60
2023-04-16T17:04:00.631Z,0.60
2023-04-16T17:06:28.862Z,0.80
2023-04-16T17:08:57.002Z,0.50
2023-04-16T17:11:27.336Z,0.60
2023-04-16T17:13:55.383Z,0.70
2023-04-16T17:16:24.229Z,0.60
2023-04-16T17:18:52.355Z,0.50
2023-04-16T17:21:20.317Z,0.70
2023-04-16T17:23:48.504Z,1.50
2023-04-16T17:28:44.739Z,0.60
2023-04-16T17:31:13.019Z,1.40
2023-04-16T17:36:09.140Z,0.30
2023-04-16T17:38:37.142Z,0.60
2023-04-16T17:41:05.209Z,0.70
2023-04-16T17:43:33.274Z,0.80
2023-04-16T17:46:01.588Z,0.80
2023-04-16T17:48:29.829Z,1.50
2023-04-16T17:53:25.973Z,1.00
2023-04-16T17:55:56.564Z,0.80
2023-04-16T17:58:26.780Z,0.80
2023-04-16T18:00:54.905Z,0.80
2023-04-16T18:03:23.104Z,0.80
2023-04-16T18:05:51.660Z,1.20
2023-04-16T18:08:19.727Z,0.80
2023-04-16T18:10:47.791Z,1.10
2023-04-16T18:13:15.948Z,1.00
2023-04-16T18:18:12.246Z,0.60
2023-04-16T18:20:40.931Z,0.60
2023-04-16T18:23:09.186Z,0.50
2023-04-16T18:28:06.343Z,2.00
2023-04-16T18:30:35.530Z,0.70
2023-04-16T18:33:25.330Z,1.00
2023-04-16T18:35:51.547Z,0.90
2023-04-16T18:38:19.628Z,2.00
2023-04-16T18:40:49.883Z,0.70
2023-04-16T18:43:18.113Z,0.60
2023-04-16T18:45:46.395Z,0.60
2023-04-16T18:48:14.664Z,1.00
2023-04-16T18:50:42.846Z,0.90
2023-04-16T18:53:10.910Z,0.90
2023-04-16T18:55:39.041Z,0.50
2023-04-16T19:00:35.670Z,0.90
2023-04-16T19:03:07.102Z,0.70
2023-04-16T19:05:35.788Z,1.30
2023-04-16T19:08:04.064Z,0.60
2023-04-16T19:13:00.275Z,0.50
2023-04-16T19:18:00.620Z,1.30
2023-04-16T19:20:28.821Z,0.90
2023-04-16T19:22:57.000Z,0.70
2023-04-16T19:25:24.940Z,0.80
2023-04-16T19:27:53.351Z,0.80
2023-04-16T19:30:21.625Z,1.00
2023-04-16T19:32:49.766Z,1.00
2023-04-16T19:37:45.948Z,0.50
2023-04-16T19:40:14.220Z,1.20
2023-04-16T19:42:42.324Z,0.80
2023-04-16T19:45:10.644Z,0.70
2023-04-16T19:47:41.865Z,0.70
2023-04-16T19:50:10.821Z,0.50
2023-04-16T19:52:39.152Z,1.30
2023-04-16T19:55:08.188Z,0.30
2023-04-16T19:57:36.355Z,0.80
2023-04-16T20:00:08.923Z,0.80
2023-04-16T20:02:36.955Z,0.40
2023-04-16T20:05:06.303Z,2.00
2023-04-16T20:07:34.579Z,0.80
2023-04-16T20:12:31.142Z,0.70
2023-04-16T20:14:59.727Z,0.60
2023-04-16T20:17:28.001Z,1.20
2023-04-16T20:22:29.156Z,0.60
2023-04-16T20:24:58.143Z,1.10
2023-04-16T20:27:26.375Z,0.80
2023-04-16T20:29:54.594Z,0.50
2023-04-16T20:32:23.340Z,1.10
2023-04-16T20:34:52.273Z,0.80
2023-04-16T20:37:20.462Z,0.60
2023-04-16T20:42:22.205Z,0.40
2023-04-16T20:44:56.577Z,1.00
2023-04-16T20:47:24.815Z,0.70
2023-04-16T20:49:54.815Z,1.30
2023-04-16T20:52:22.912Z,0.60
2023-04-16T20:54:52.523Z,1.20
2023-04-16T20:57:20.590Z,0.60
2023-04-16T21:02:17.450Z,0.80
2023-04-16T21:04:46.083Z,0.60
2023-04-16T21:07:14.509Z,0.90
2023-04-16T21:09:42.497Z,1.10
2023-04-16T21:12:10.581Z,0.70
2023-04-16T21:14:38.516Z,0.50
2023-04-16T21:17:06.692Z,0.90
2023-04-16T21:19:34.674Z,0.80
2023-04-16T21:22:02.980Z,0.90
2023-04-16T21:24:32.671Z,0.60
2023-04-16T21:27:01.840Z,1.00
2023-04-16T21:29:30.535Z,0.50
2023-04-16T21:31:58.574Z,1.00
2023-04-16T21:34:26.688Z,0.70
2023-04-16T21:39:24.769Z,0.70
2023-04-16T21:41:52.843Z,1.50
2023-04-16T21:44:21.433Z,0.70
2023-04-16T21:46:50.083Z,0.60
2023-04-16T21:49:18.309Z,1.00
2023-04-16T21:51:46.465Z,0.90
2023-04-16T21:54:18.030Z,0.60
2023-04-16T21:56:46.346Z,0.50
2023-04-16T21:59:14.381Z,0.80
2023-04-16T22:01:42.904Z,1.00
2023-04-16T22:04:12.404Z,1.00
2023-04-16T22:06:40.839Z,0.50
2023-04-16T22:11:38.514Z,1.30
2023-04-16T22:16:36.686Z,0.70
2023-04-16T22:19:05.104Z,0.90
2023-04-16T22:21:33.262Z,0.50
2023-04-16T22:24:01.349Z,1.00
2023-04-16T22:28:57.687Z,0.90
2023-04-16T22:31:25.790Z,0.40
2023-04-16T22:33:53.713Z,0.50
2023-04-16T22:36:22.203Z,0.50
2023-04-16T22:38:50.356Z,0.60
2023-04-16T22:41:18.578Z,1.50
2023-04-16T22:43:46.843Z,0.60
2023-04-16T22:46:14.934Z,0.70
2023-04-16T22:51:11.137Z,0.90
2023-04-16T22:53:39.091Z,0.50
2023-04-16T22:56:07.700Z,0.40
2023-04-16T22:58:35.881Z,0.70
2023-04-16T23:03:32.093Z,0.40
2023-04-16T23:08:28.254Z,0.70
2023-04-16T23:10:56.334Z,0.50
2023-04-16T23:13:24.499Z,1.00
2023-04-16T23:15:52.889Z,0.80
2023-04-16T23:20:52.921Z,0.50
2023-04-16T23:23:21.303Z,0.80
2023-04-16T23:28:20.524Z,0.90
2023-04-16T23:30:52.501Z,0.70
2023-04-16T23:33:21.062Z,0.70
2023-04-16T23:35:48.893Z,0.60
2023-04-16T23:38:17.097Z,1.90
2023-04-16T23:40:45.183Z,1.10
2023-04-16T23:43:13.259Z,0.60
2023-04-16T23:45:41.315Z,0.60
2023-04-16T23:48:09.486Z,0.70
2023-04-16T23:50:37.580Z,0.80
2023-04-16T23:53:05.649Z,0.70
2023-04-16T23:55:33.926Z,0.50
2023-04-16T23:58:01.891Z,0.40
